Time;durP1;ratioP1;P1;durP2;ratioP2;P2;SDS_P1;SDS_P2;PMS_P1;PMS_P2;Temp;Humidity;BMP_temperature;BMP_pressure;BME280_temperature;BME280_humidity;BME280_pressure;Samples;Min_cycle;Max_cycle;Signal;HPM_P1;HPM_P2
2023/03/20 00:01:21;;;;;;;39.60;24.77;;;;;;;;;;5026285;28;20052;-76
2023/03/20 00:03:47;;;;;;;36.37;24.27;;;;;;;;;;5026584;28;20357;-75
2023/03/20 00:06:24;;;;;;;34.23;23.20;;;;;;;;;;5005159;28;20054;-76
2023/03/20 00:08:51;;;;;;;40.57;23.10;;;;;;;;;;5004775;28;20608;-75
2023/03/20 00:11:20;;;;;;;38.53;24.37;;;;;;;;;;5028187;28;20034;-76
2023/03/20 00:13:46;;;;;;;38.67;23.37;;;;;;;;;;5028032;28;20060;-76
2023/03/20 00:16:12;;;;;;;38.20;22.93;;;;;;;;;;5025032;28;20045;-75
2023/03/20 00:18:40;;;;;;;37.47;23.23;;;;;;;;;;5005766;28;20022;-75
2023/03/20 00:21:10;;;;;;;41.53;24.57;;;;;;;;;;5014883;28;20026;-75
2023/03/20 00:23:39;;;;;;;34.07;22.20;;;;;;;;;;5038149;28;20036;-75
2023/03/20 00:26:05;;;;;;;38.50;22.73;;;;;;;;;;5038794;28;20029;-76
2023/03/20 00:28:39;;;;;;;34.60;21.97;;;;;;;;;;5016803;28;20029;-75
2023/03/20 00:31:28;;;;;;;37.03;23.57;;;;;;;;;;5021606;28;20044;-75
2023/03/20 00:33:56;;;;;;;38.90;23.13;;;;;;;;;;5012975;28;20029;-75
2023/03/20 00:36:24;;;;;;;39.33;24.73;;;;;;;;;;5034014;28;20071;-75
2023/03/20 00:38:53;;;;;;;39.90;24.67;;;;;;;;;;5005055;28;20071;-76
2023/03/20 00:41:26;;;;;;;48.00;25.80;;;;;;;;;;5016696;28;20025;-76
2023/03/20 00:43:59;;;;;;;39.13;25.40;;;;;;;;;;5036037;28;20060;-76
2023/03/20 00:46:25;;;;;;;;;;;;;;;;;;5019439;28;20035;-75
2023/03/20 00:48:51;;;;;;;39.87;25.93;;;;;;;;;;5027085;28;19909;-74
2023/03/20 00:51:17;;;;;;;43.30;27.83;;;;;;;;;;5030853;28;20160;-75
2023/03/20 00:53:44;;;;;;;47.33;27.97;;;;;;;;;;5011118;28;20044;-75
2023/03/20 00:56:39;;;;;;;44.57;27.73;;;;;;;;;;5012781;28;20120;-75
2023/03/20 00:59:05;;;;;;;41.70;26.00;;;;;;;;;;5006509;28;20029;-75
2023/03/20 01:01:31;;;;;;;41.83;26.43;;;;;;;;;;5013914;28;20034;-76
2023/03/20 01:03:58;;;;;;;38.00;25.27;;;;;;;;;;5027657;28;20111;-75
2023/03/20 01:06:24;;;;;;;41.37;25.27;;;;;;;;;;5029556;28;20038;-75
2023/03/20 01:08:50;;;;;;;39.70;25.80;;;;;;;;;;5013770;28;20033;-75
2023/03/20 01:11:24;;;;;;;38.73;25.37;;;;;;;;;;5013586;28;20099;-75
2023/03/20 01:13:51;;;;;;;41.80;25.50;;;;;;;;;;5026806;28;20026;-74
2023/03/20 01:16:22;;;;;;;43.60;25.63;;;;;;;;;;5027391;28;20032;-75
2023/03/20 01:18:48;;;;;;;43.53;25.43;;;;;;;;;;5009213;28;21637;-75
2023/03/20 01:21:14;;;;;;;39.93;25.17;;;;;;;;;;5011055;28;20025;-75
2023/03/20 01:23:40;;;;;;;39.93;23.73;;;;;;;;;;5012084;28;20085;-76
2023/03/20 01:26:27;;;;;;;35.90;23.60;;;;;;;;;;5024779;28;20108;-75
2023/03/20 01:28:52;;;;;;;41.00;25.10;;;;;;;;;;5007979;28;20036;-75
2023/03/20 01:31:19;;;;;;;36.07;23.30;;;;;;;;;;5008327;28;20052;-76
2023/03/20 01:33:45;;;;;;;40.13;24.70;;;;;;;;;;5024992;28;20129;-73
2023/03/20 01:36:15;;;;;;;38.67;23.57;;;;;;;;;;5011356;28;20456;-75
2023/03/20 01:38:42;;;;;;;36.07;22.67;;;;;;;;;;5011242;28;20025;-76
2023/03/20 01:41:09;;;;;;;35.03;21.50;;;;;;;;;;5021255;28;20089;-76
2023/03/20 01:43:35;;;;;;;36.37;22.80;;;;;;;;;;5010846;28;20890;-74
2023/03/20 01:46:05;;;;;;;36.50;22.13;;;;;;;;;;5008107;28;20040;-76
2023/03/20 01:48:49;;;;;;;35.97;22.47;;;;;;;;;;5012004;28;20026;-75
2023/03/20 01:51:15;;;;;;;36.33;22.33;;;;;;;;;;5008333;28;20065;-74
2023/03/20 01:53:42;;;;;;;33.70;21.60;;;;;;;;;;5011138;28;20037;-75
2023/03/20 01:56:09;;;;;;;34.33;22.00;;;;;;;;;;5023996;28;20033;-76
2023/03/20 01:58:37;;;;;;;32.93;22.20;;;;;;;;;;5011250;28;20026;-76
2023/03/20 02:01:05;;;;;;;35.00;21.83;;;;;;;;;;5009319;28;20815;-76
2023/03/20 02:03:33;;;;;;;36.47;22.63;;;;;;;;;;5011286;28;20033;-76
2023/03/20 02:05:59;;;;;;;35.53;21.97;;;;;;;;;;5010511;28;20037;-75
2023/03/20 02:08:27;;;;;;;38.73;21.60;;;;;;;;;;5009386;28;20056;-75
2023/03/20 02:10:53;;;;;;;38.33;22.03;;;;;;;;;;5026505;28;20029;-76
2023/03/20 02:13:23;;;;;;;35.73;22.90;;;;;;;;;;5004343;28;20038;-75
2023/03/20 02:16:16;;;;;;;35.03;21.73;;;;;;;;;;5010580;28;20091;-76
2023/03/20 02:18:43;;;;;;;38.78;23.90;;;;;;;;;;5007152;28;20051;-76
2023/03/20 02:21:09;;;;;;;37.53;22.23;;;;;;;;;;5009731;28;20053;-76
2023/03/20 02:23:44;;;;;;;36.67;23.40;;;;;;;;;;5010987;28;20044;-76
2023/03/20 02:26:13;;;;;;;43.63;27.23;;;;;;;;;;5023355;28;20036;-74
2023/03/20 02:28:58;;;;;;;41.30;23.43;;;;;;;;;;5023194;28;20126;-76
2023/03/20 02:31:24;;;;;;;40.63;23.83;;;;;;;;;;5024167;28;20057;-75
2023/03/20 02:33:53;;;;;;;37.60;23.70;;;;;;;;;;5010127;28;20029;-76
2023/03/20 02:36:37;;;;;;;40.37;23.97;;;;;;;;;;5022768;28;20091;-75
2023/03/20 02:39:23;;;;;;;31.47;22.23;;;;;;;;;;5010143;28;20056;-75
2023/03/20 02:41:54;;;;;;;37.13;22.83;;;;;;;;;;5009983;28;20044;-76
2023/03/20 02:44:26;;;;;;;36.40;22.53;;;;;;;;;;5023686;28;20049;-75
2023/03/20 02:46:52;;;;;;;42.22;24.63;;;;;;;;;;5025038;28;20096;-76
2023/03/20 02:49:18;;;;;;;41.57;23.63;;;;;;;;;;5009653;28;20128;-76
2023/03/20 02:51:51;;;;;;;39.87;25.23;;;;;;;;;;5010838;28;20403;-75
2023/03/20 02:54:36;;;;;;;39.87;24.17;;;;;;;;;;5018609;28;20028;-76
2023/03/20 02:57:05;;;;;;;37.57;23.17;;;;;;;;;;5029120;28;20017;-76
2023/03/20 02:59:50;;;;;;;41.00;24.57;;;;;;;;;;5030580;28;20014;-76
2023/03/20 03:02:18;;;;;;;45.53;25.53;;;;;;;;;;5015771;28;20021;-76
2023/03/20 03:04:49;;;;;;;42.67;25.03;;;;;;;;;;5017074;28;20017;-76
2023/03/20 03:07:18;;;;;;;47.00;24.73;;;;;;;;;;5014488;28;20022;-75
2023/03/20 03:09:49;;;;;;;43.03;25.00;;;;;;;;;;5010517;28;20030;-76
2023/03/20 03:12:17;;;;;;;44.33;25.10;;;;;;;;;;5014492;28;20083;-76
2023/03/20 03:14:46;;;;;;;41.50;23.70;;;;;;;;;;5022146;28;20075;-76
2023/03/20 03:17:15;;;;;;;38.57;23.00;;;;;;;;;;5020982;28;20457;-76
2023/03/20 03:19:43;;;;;;;39.40;22.87;;;;;;;;;;5026978;28;20018;-76
2023/03/20 03:22:12;;;;;;;39.60;23.03;;;;;;;;;;5017403;28;20029;-76
2023/03/20 03:24:42;;;;;;;41.83;23.53;;;;;;;;;;5018375;28;20038;-76
2023/03/20 03:27:18;;;;;;;38.53;22.40;;;;;;;;;;5018320;28;20029;-75
2023/03/20 03:29:47;;;;;;;41.30;24.10;;;;;;;;;;5010168;28;20466;-76
2023/03/20 03:32:29;;;;;;;42.27;22.83;;;;;;;;;;5022741;28;20087;-76
2023/03/20 03:34:55;;;;;;;45.35;24.48;;;;;;;;;;5028716;28;20025;-76
2023/03/20 03:37:21;;;;;;;39.80;24.90;;;;;;;;;;5006081;28;20061;-76
2023/03/20 03:39:47;;;;;;;40.17;23.90;;;;;;;;;;5007204;28;20478;-76
2023/03/20 03:42:16;;;;;;;41.03;24.87;;;;;;;;;;5030522;28;20026;-75
2023/03/20 03:44:48;;;;;;;41.63;23.93;;;;;;;;;;5006452;28;20026;-76
2023/03/20 03:47:14;;;;;;;44.47;24.45;;;;;;;;;;5023829;28;20044;-76
2023/03/20 03:49:45;;;;;;;44.67;24.53;;;;;;;;;;5010636;28;20034;-75
2023/03/20 03:52:14;;;;;;;52.60;26.97;;;;;;;;;;5020035;28;20056;-76
2023/03/20 03:54:56;;;;;;;45.10;25.83;;;;;;;;;;5018845;28;20103;-75
2023/03/20 03:57:28;;;;;;;46.40;26.23;;;;;;;;;;5015453;28;20044;-76
2023/03/20 03:59:55;;;;;;;43.42;25.20;;;;;;;;;;5014628;28;20088;-75
2023/03/20 04:02:22;;;;;;;43.07;25.13;;;;;;;;;;5017802;28;20036;-76
2023/03/20 04:04:50;;;;;;;42.73;23.97;;;;;;;;;;5020289;28;20025;-75
2023/03/20 04:07:16;;;;;;;40.70;23.50;;;;;;;;;;5015297;28;20022;-76
2023/03/20 04:09:42;;;;;;;38.67;21.37;;;;;;;;;;5025041;28;20837;-75
2023/03/20 04:12:28;;;;;;;36.97;22.60;;;;;;;;;;5013725;28;20095;-76
2023/03/20 04:14:54;;;;;;;37.90;22.47;;;;;;;;;;5013080;28;20092;-75
2023/03/20 04:17:20;;;;;;;39.40;22.53;;;;;;;;;;5014714;28;20053;-76
2023/03/20 04:19:46;;;;;;;42.87;24.33;;;;;;;;;;5008562;28;20022;-76
2023/03/20 04:22:12;;;;;;;41.17;23.03;;;;;;;;;;5033864;28;20354;-76
2023/03/20 04:24:38;;;;;;;43.67;22.27;;;;;;;;;;5019018;28;20109;-76
2023/03/20 04:27:04;;;;;;;35.17;19.97;;;;;;;;;;5011182;28;20080;-76
2023/03/20 04:29:29;;;;;;;35.77;19.73;;;;;;;;;;5011183;28;20459;-76
2023/03/20 04:31:55;;;;;;;32.53;19.33;;;;;;;;;;5018467;28;20080;-76
2023/03/20 04:34:22;;;;;;;31.63;18.47;;;;;;;;;;5006275;28;20041;-76
2023/03/20 04:36:48;;;;;;;32.97;18.77;;;;;;;;;;5016090;28;20025;-76
2023/03/20 04:39:14;;;;;;;33.27;18.60;;;;;;;;;;5016196;28;20619;-76
2023/03/20 04:41:40;;;;;;;33.07;18.90;;;;;;;;;;5025517;28;20030;-76
2023/03/20 04:44:06;;;;;;;32.50;18.93;;;;;;;;;;5022198;28;20408;-76
2023/03/20 04:46:32;;;;;;;36.30;18.37;;;;;;;;;;5027798;28;20064;-76
2023/03/20 04:48:58;;;;;;;30.30;17.23;;;;;;;;;;5018112;28;20330;-76
2023/03/20 04:51:24;;;;;;;28.70;17.63;;;;;;;;;;5008352;28;20113;-76
2023/03/20 04:53:55;;;;;;;34.97;18.57;;;;;;;;;;5035831;28;20033;-76
2023/03/20 04:56:21;;;;;;;27.60;15.67;;;;;;;;;;5026385;28;20509;-75
2023/03/20 04:58:47;;;;;;;27.23;15.67;;;;;;;;;;5031060;28;20093;-75
2023/03/20 05:01:13;;;;;;;30.43;17.77;;;;;;;;;;5019027;28;20427;-76
2023/03/20 05:03:39;;;;;;;27.43;16.10;;;;;;;;;;5017020;28;20029;-76
2023/03/20 05:06:05;;;;;;;31.20;17.00;;;;;;;;;;5004104;28;20476;-76
2023/03/20 05:08:34;;;;;;;33.00;16.80;;;;;;;;;;5017181;28;20346;-76
2023/03/20 05:11:00;;;;;;;26.17;14.70;;;;;;;;;;5014465;28;20034;-76
2023/03/20 05:13:26;;;;;;;29.97;16.37;;;;;;;;;;5018459;28;20028;-76
2023/03/20 05:15:52;;;;;;;33.57;16.13;;;;;;;;;;5015956;28;20099;-76
2023/03/20 05:18:18;;;;;;;28.33;14.90;;;;;;;;;;5011368;28;20022;-76
2023/03/20 05:20:44;;;;;;;27.80;15.87;;;;;;;;;;5006603;28;20331;-76
2023/03/20 05:23:14;;;;;;;31.77;17.33;;;;;;;;;;5028020;28;20097;-76
2023/03/20 05:25:40;;;;;;;27.87;15.03;;;;;;;;;;5014697;28;20398;-76
2023/03/20 05:28:06;;;;;;;31.23;16.23;;;;;;;;;;5024815;28;20105;-76
2023/03/20 05:30:33;;;;;;;32.40;17.67;;;;;;;;;;5013726;28;20045;-75
2023/03/20 05:32:59;;;;;;;31.17;17.30;;;;;;;;;;5018106;28;20053;-76
2023/03/20 05:35:25;;;;;;;31.73;16.90;;;;;;;;;;5020646;28;20581;-76
2023/03/20 05:37:51;;;;;;;31.37;17.23;;;;;;;;;;5027962;28;20045;-75
2023/03/20 05:40:18;;;;;;;32.50;17.47;;;;;;;;;;5017841;28;20041;-75
2023/03/20 05:42:44;;;;;;;34.73;15.70;;;;;;;;;;5035525;28;20386;-75
2023/03/20 05:45:11;;;;;;;31.43;16.57;;;;;;;;;;5014479;28;20029;-76
2023/03/20 05:47:39;;;;;;;28.00;16.13;;;;;;;;;;5023991;28;20063;-76
2023/03/20 05:50:06;;;;;;;29.27;16.17;;;;;;;;;;5011996;28;20021;-75
2023/03/20 05:52:31;;;;;;;33.03;15.70;;;;;;;;;;5016754;28;20038;-75
2023/03/20 05:54:57;;;;;;;27.13;15.00;;;;;;;;;;5011028;28;20021;-75
2023/03/20 05:57:23;;;;;;;30.07;16.97;;;;;;;;;;5018046;28;20354;-75
2023/03/20 05:59:49;;;;;;;30.63;16.83;;;;;;;;;;5014927;28;20056;-76
2023/03/20 06:02:16;;;;;;;30.97;16.37;;;;;;;;;;5009251;28;20040;-76
2023/03/20 06:04:42;;;;;;;29.40;16.10;;;;;;;;;;5007782;28;20619;-76
2023/03/20 06:07:08;;;;;;;36.67;16.53;;;;;;;;;;5012382;28;20112;-77
2023/03/20 06:09:36;;;;;;;29.53;16.67;;;;;;;;;;5013829;28;20029;-76
2023/03/20 06:12:02;;;;;;;32.67;16.20;;;;;;;;;;5025322;28;20029;-76
2023/03/20 06:14:33;;;;;;;28.87;15.83;;;;;;;;;;5003553;28;20029;-76
2023/03/20 06:16:59;;;;;;;30.80;15.27;;;;;;;;;;5014048;28;20113;-76
2023/03/20 06:19:25;;;;;;;28.90;16.00;;;;;;;;;;5016337;28;20070;-76
2023/03/20 06:21:51;;;;;;;29.33;15.30;;;;;;;;;;5020592;28;20476;-76
2023/03/20 06:24:17;;;;;;;26.67;15.60;;;;;;;;;;5017539;28;20076;-76
2023/03/20 06:26:43;;;;;;;28.00;15.77;;;;;;;;;;5033867;28;20054;-76
2023/03/20 06:29:09;;;;;;;27.33;15.97;;;;;;;;;;5017750;28;20120;-76
2023/03/20 06:31:35;;;;;;;25.40;15.07;;;;;;;;;;5013287;28;20021;-76
2023/03/20 06:34:01;;;;;;;35.43;17.27;;;;;;;;;;5006078;28;20083;-76
2023/03/20 06:36:27;;;;;;;33.67;15.93;;;;;;;;;;5023884;28;20040;-76
2023/03/20 06:38:55;;;;;;;29.83;16.20;;;;;;;;;;5015216;28;20025;-76
2023/03/20 06:41:24;;;;;;;32.30;17.13;;;;;;;;;;5016477;28;20064;-75
2023/03/20 06:43:50;;;;;;;30.40;18.13;;;;;;;;;;5022327;28;20021;-76
2023/03/20 06:46:16;;;;;;;33.03;17.53;;;;;;;;;;5005187;28;20025;-76
2023/03/20 06:48:42;;;;;;;31.43;18.47;;;;;;;;;;5012523;28;20040;-75
2023/03/20 06:51:08;;;;;;;29.93;18.50;;;;;;;;;;5014349;28;20556;-75
2023/03/20 06:53:37;;;;;;;30.67;18.57;;;;;;;;;;5023959;28;20033;-76
2023/03/20 06:56:03;;;;;;;37.40;19.50;;;;;;;;;;5010565;28;20036;-76
2023/03/20 06:58:29;;;;;;;34.13;19.47;;;;;;;;;;5008164;28;20029;-76
2023/03/20 07:00:56;;;;;;;30.40;17.93;;;;;;;;;;5024797;28;20120;-76
2023/03/20 07:03:22;;;;;;;34.87;20.00;;;;;;;;;;5009106;28;20063;-75
2023/03/20 07:05:48;;;;;;;30.53;18.47;;;;;;;;;;5022588;28;20030;-76
2023/03/20 07:08:14;;;;;;;28.43;17.50;;;;;;;;;;5010198;28;20462;-76
2023/03/20 07:10:42;;;;;;;30.87;17.63;;;;;;;;;;5007001;28;20469;-76
2023/03/20 07:13:09;;;;;;;27.87;17.40;;;;;;;;;;5024652;28;20044;-76
2023/03/20 07:15:35;;;;;;;26.30;16.60;;;;;;;;;;5010919;28;20483;-76
2023/03/20 07:18:01;;;;;;;33.23;18.27;;;;;;;;;;5010987;28;20072;-75
2023/03/20 07:20:27;;;;;;;28.60;16.53;;;;;;;;;;5010635;28;20413;-74
2023/03/20 07:22:54;;;;;;;27.80;17.10;;;;;;;;;;5023880;28;20272;-76
2023/03/20 07:25:20;;;;;;;30.83;15.90;;;;;;;;;;5024238;28;20036;-76
2023/03/20 07:27:51;;;;;;;27.43;15.73;;;;;;;;;;5011168;28;20044;-75
2023/03/20 07:30:17;;;;;;;28.40;15.63;;;;;;;;;;5025938;28;20473;-75
2023/03/20 07:32:44;;;;;;;28.27;16.23;;;;;;;;;;5010161;28;20025;-74
2023/03/20 07:35:10;;;;;;;28.17;15.23;;;;;;;;;;5008965;28;20354;-76
2023/03/20 07:37:36;;;;;;;23.00;14.13;;;;;;;;;;5006971;28;20733;-76
2023/03/20 07:40:03;;;;;;;19.77;12.10;;;;;;;;;;5023260;28;20038;-75
2023/03/20 07:42:29;;;;;;;18.67;12.73;;;;;;;;;;5021640;28;20036;-76
2023/03/20 07:44:55;;;;;;;18.00;10.87;;;;;;;;;;5022606;28;20056;-74
2023/03/20 07:47:21;;;;;;;17.30;10.70;;;;;;;;;;5005283;28;20444;-76
2023/03/20 07:49:47;;;;;;;18.03;11.53;;;;;;;;;;5011997;28;20039;-75
2023/03/20 07:52:13;;;;;;;18.40;10.20;;;;;;;;;;5023230;28;20033;-74
2023/03/20 07:54:39;;;;;;;15.93;10.03;;;;;;;;;;5013553;28;20124;-76
2023/03/20 07:57:05;;;;;;;15.93;10.00;;;;;;;;;;5009535;28;20037;-76
2023/03/20 07:59:31;;;;;;;17.67;9.93;;;;;;;;;;5020485;28;20032;-76
2023/03/20 08:02:00;;;;;;;17.30;9.17;;;;;;;;;;5024255;28;20099;-76
2023/03/20 08:04:26;;;;;;;12.87;8.83;;;;;;;;;;5023538;28;20999;-76
2023/03/20 08:06:52;;;;;;;12.37;8.20;;;;;;;;;;5023964;28;20042;-75
2023/03/20 08:09:18;;;;;;;14.67;8.27;;;;;;;;;;5022949;28;20061;-75
2023/03/20 08:11:44;;;;;;;16.00;8.77;;;;;;;;;;5022799;28;20160;-76
2023/03/20 08:14:10;;;;;;;15.07;7.63;;;;;;;;;;5009488;28;20044;-75
2023/03/20 08:16:37;;;;;;;14.67;7.93;;;;;;;;;;5009982;28;20480;-75
2023/03/20 08:19:04;;;;;;;13.30;7.27;;;;;;;;;;5010517;28;20046;-76
2023/03/20 08:21:30;;;;;;;13.37;7.33;;;;;;;;;;5005199;28;20109;-75
2023/03/20 08:23:57;;;;;;;12.63;7.37;;;;;;;;;;5020041;28;20044;-76
2023/03/20 08:26:23;;;;;;;13.43;7.23;;;;;;;;;;5023242;28;20088;-76
2023/03/20 08:28:49;;;;;;;13.17;7.90;;;;;;;;;;5012384;28;20033;-75
2023/03/20 08:31:16;;;;;;;14.33;8.07;;;;;;;;;;5021712;28;20037;-76
2023/03/20 08:33:42;;;;;;;10.47;7.23;;;;;;;;;;5021890;28;20037;-76
2023/03/20 08:36:08;;;;;;;26.63;9.13;;;;;;;;;;5005564;28;20042;-76
2023/03/20 08:38:34;;;;;;;15.67;8.17;;;;;;;;;;5008699;28;20025;-76
2023/03/20 08:41:03;;;;;;;13.33;8.13;;;;;;;;;;5008761;28;20037;-76
2023/03/20 08:43:29;;;;;;;13.53;8.07;;;;;;;;;;5021325;28;20041;-73
2023/03/20 08:45:55;;;;;;;16.50;8.73;;;;;;;;;;5009620;28;20053;-75
2023/03/20 08:48:24;;;;;;;13.40;7.07;;;;;;;;;;5023892;28;21277;-75
2023/03/20 08:50:50;;;;;;;19.53;8.00;;;;;;;;;;5012982;28;20034;-76
2023/03/20 08:53:16;;;;;;;14.67;7.90;;;;;;;;;;5020066;28;20038;-76
2023/03/20 08:55:47;;;;;;;16.33;7.77;;;;;;;;;;5017734;28;20021;-77
2023/03/20 08:58:13;;;;;;;12.87;7.20;;;;;;;;;;5036047;28;20048;-76
2023/03/20 09:00:40;;;;;;;14.77;7.47;;;;;;;;;;5025913;28;20490;-76
2023/03/20 09:03:09;;;;;;;15.20;8.17;;;;;;;;;;5035281;28;20427;-75
2023/03/20 09:05:36;;;;;;;17.37;7.53;;;;;;;;;;5018248;28;20029;-76
2023/03/20 09:08:02;;;;;;;16.73;9.03;;;;;;;;;;5031663;28;20426;-76
2023/03/20 09:10:29;;;;;;;18.03;8.30;;;;;;;;;;5006726;28;20033;-76
2023/03/20 09:12:55;;;;;;;20.37;9.07;;;;;;;;;;5019537;28;20018;-75
2023/03/20 09:15:21;;;;;;;15.53;9.13;;;;;;;;;;5032785;28;20124;-76
2023/03/20 09:17:47;;;;;;;19.20;8.30;;;;;;;;;;5031922;28;20419;-76
2023/03/20 09:20:13;;;;;;;18.00;9.93;;;;;;;;;;5001623;28;20112;-76
2023/03/20 09:22:41;;;;;;;16.43;8.77;;;;;;;;;;5006338;28;20021;-75
2023/03/20 09:25:07;;;;;;;17.10;9.17;;;;;;;;;;5024639;28;20434;-76
2023/03/20 09:27:33;;;;;;;13.57;8.57;;;;;;;;;;5012420;28;20037;-76
2023/03/20 09:29:59;;;;;;;19.53;9.70;;;;;;;;;;5027356;28;20040;-76
2023/03/20 09:32:28;;;;;;;15.50;9.40;;;;;;;;;;5026499;28;20033;-76
2023/03/20 09:34:53;;;;;;;19.23;9.60;;;;;;;;;;5021049;28;20027;-76
2023/03/20 09:37:19;;;;;;;19.47;10.60;;;;;;;;;;5013272;28;20021;-75
2023/03/20 09:39:48;;;;;;;15.70;9.57;;;;;;;;;;5033086;28;20071;-76
2023/03/20 09:42:23;;;;;;;19.73;10.93;;;;;;;;;;5022237;28;20041;-76
2023/03/20 09:44:52;;;;;;;16.57;9.87;;;;;;;;;;5023443;28;20425;-76
2023/03/20 09:47:18;;;;;;;15.90;10.77;;;;;;;;;;5030667;28;20133;-75
2023/03/20 09:49:48;;;;;;;18.23;9.93;;;;;;;;;;5035210;28;20048;-76
2023/03/20 09:52:21;;;;;;;19.37;9.90;;;;;;;;;;5030291;28;20347;-76
2023/03/20 09:54:52;;;;;;;16.23;10.13;;;;;;;;;;5020031;28;20026;-76
2023/03/20 09:57:24;;;;;;;21.13;10.33;;;;;;;;;;5033141;28;20026;-75
2023/03/20 09:59:55;;;;;;;19.45;11.00;;;;;;;;;;5032725;28;20022;-76
2023/03/20 10:02:27;;;;;;;18.13;10.33;;;;;;;;;;5038841;28;20022;-76
2023/03/20 10:04:54;;;;;;;18.23;9.02;;;;;;;;;;5022861;28;20029;-75
2023/03/20 10:07:20;;;;;;;16.67;9.33;;;;;;;;;;5019830;28;20045;-76
2023/03/20 10:09:46;;;;;;;17.33;10.00;;;;;;;;;;5031458;28;20338;-76
2023/03/20 10:12:47;;;;;;;16.87;9.63;;;;;;;;;;5005370;28;20045;-76
2023/03/20 10:15:34;;;;;;;15.47;9.40;;;;;;;;;;4939767;29;20038;-77
2023/03/20 10:18:07;;;;;;;15.10;8.33;;;;;;;;;;5005109;28;20033;-77
2023/03/20 10:20:35;;;;;;;15.77;8.17;;;;;;;;;;5023001;28;20108;-77
2023/03/20 10:23:21;;;;;;;14.93;6.83;;;;;;;;;;5014999;28;20025;-76
2023/03/20 10:25:53;;;;;;;13.40;6.40;;;;;;;;;;4985232;28;20025;-77
2023/03/20 10:28:27;;;;;;;14.75;6.65;;;;;;;;;;5028701;28;20041;-76
2023/03/20 10:31:15;;;;;;;12.10;5.33;;;;;;;;;;5026556;28;20053;-76
2023/03/20 10:33:45;;;;;;;13.70;6.30;;;;;;;;;;5025007;28;20108;-76
2023/03/20 10:36:23;;;;;;;12.53;5.83;;;;;;;;;;5012231;28;20548;-77
2023/03/20 10:38:56;;;;;;;12.47;5.43;;;;;;;;;;5014334;28;20079;-76
2023/03/20 10:41:24;;;;;;;12.73;5.97;;;;;;;;;;5020495;28;20040;-76
2023/03/20 10:43:53;;;;;;;9.47;4.53;;;;;;;;;;5034562;28;20057;-75
2023/03/20 10:46:25;;;;;;;8.50;4.23;;;;;;;;;;5015344;28;20018;-76
2023/03/20 10:49:07;;;;;;;7.65;3.83;;;;;;;;;;5009871;28;20025;-75
2023/03/20 10:51:47;;;;;;;12.80;4.30;;;;;;;;;;5026900;28;20061;-76
2023/03/20 10:54:19;;;;;;;11.93;4.00;;;;;;;;;;5020864;28;20094;-75
2023/03/20 10:56:48;;;;;;;10.15;4.18;;;;;;;;;;5005989;28;20026;-76
2023/03/20 10:59:23;;;;;;;9.97;3.47;;;;;;;;;;5019404;28;20022;-75
2023/03/20 11:01:50;;;;;;;7.80;2.83;;;;;;;;;;5012324;28;20033;-76
2023/03/20 11:04:16;;;;;;;9.17;3.57;;;;;;;;;;5015829;28;20022;-76
2023/03/20 11:06:50;;;;;;;10.50;3.20;;;;;;;;;;5034385;28;20056;-76
2023/03/20 11:09:19;;;;;;;7.17;2.63;;;;;;;;;;5033766;28;20072;-76
2023/03/20 11:11:48;;;;;;;6.23;2.77;;;;;;;;;;5006017;28;20450;-76
2023/03/20 11:14:21;;;;;;;5.27;2.47;;;;;;;;;;5005922;28;20021;-76
2023/03/20 11:16:49;;;;;;;7.47;2.87;;;;;;;;;;4999218;28;20315;-77
2023/03/20 11:19:16;;;;;;;7.17;2.67;;;;;;;;;;5003395;28;20017;-76
2023/03/20 11:21:47;;;;;;;7.43;2.33;;;;;;;;;;5034152;28;20033;-76
2023/03/20 11:24:39;;;;;;;8.87;2.97;;;;;;;;;;5019031;28;20025;-75
2023/03/20 11:27:10;;;;;;;8.43;3.17;;;;;;;;;;5025011;28;20045;-76
2023/03/20 11:29:37;;;;;;;9.43;2.93;;;;;;;;;;5028803;28;20057;-76
2023/03/20 11:32:20;;;;;;;10.90;3.13;;;;;;;;;;5016796;28;20053;-76
2023/03/20 11:34:46;;;;;;;9.87;3.53;;;;;;;;;;5020441;28;20111;-75
2023/03/20 11:37:24;;;;;;;9.63;3.60;;;;;;;;;;5034264;28;20516;-76
2023/03/20 11:39:58;;;;;;;14.60;3.50;;;;;;;;;;5034913;28;20173;-75
2023/03/20 11:42:25;;;;;;;7.93;2.93;;;;;;;;;;5013019;28;20941;-76
2023/03/20 11:45:02;;;;;;;8.87;3.13;;;;;;;;;;5030520;28;20033;-75
2023/03/20 11:47:31;;;;;;;7.50;3.13;;;;;;;;;;5009388;28;20025;-75
2023/03/20 11:49:59;;;;;;;8.03;2.80;;;;;;;;;;5024370;28;20030;-76
2023/03/20 11:52:29;;;;;;;7.57;3.07;;;;;;;;;;5030509;28;20033;-75
2023/03/20 11:54:58;;;;;;;8.13;3.23;;;;;;;;;;5031395;28;20041;-75
2023/03/20 11:57:33;;;;;;;5.83;2.43;;;;;;;;;;5023460;28;20025;-75
2023/03/20 12:00:11;;;;;;;10.27;3.57;;;;;;;;;;5023094;28;20054;-76
2023/03/20 12:02:40;;;;;;;8.20;3.10;;;;;;;;;;5031233;28;20051;-75
2023/03/20 12:05:27;;;;;;;5.97;2.53;;;;;;;;;;5005853;28;20030;-76
2023/03/20 12:07:56;;;;;;;12.30;3.57;;;;;;;;;;5010124;28;20061;-76
2023/03/20 12:10:24;;;;;;;6.27;2.93;;;;;;;;;;5039655;28;20057;-76
2023/03/20 12:13:00;;;;;;;5.80;2.53;;;;;;;;;;5025363;28;20035;-75
2023/03/20 12:15:35;;;;;;;11.10;2.93;;;;;;;;;;5033799;28;20033;-76
2023/03/20 12:18:17;;;;;;;7.20;2.50;;;;;;;;;;5023278;28;20014;-74
2023/03/20 12:20:43;;;;;;;15.47;3.60;;;;;;;;;;5029202;28;20022;-75
2023/03/20 12:23:09;;;;;;;8.93;3.87;;;;;;;;;;5025868;28;20029;-75
2023/03/20 12:25:47;;;;;;;8.70;3.47;;;;;;;;;;5022985;28;20030;-75
2023/03/20 12:28:30;;;;;;;6.03;2.97;;;;;;;;;;5005412;28;20458;-76
2023/03/20 12:30:59;;;;;;;7.80;2.85;;;;;;;;;;5002357;28;20116;-76
2023/03/20 12:33:37;;;;;;;8.43;2.83;;;;;;;;;;5010496;28;20065;-76
2023/03/20 12:36:05;;;;;;;6.53;2.43;;;;;;;;;;5019792;28;20029;-75
2023/03/20 12:38:33;;;;;;;5.47;2.13;;;;;;;;;;5031684;28;20021;-74
2023/03/20 12:41:12;;;;;;;5.43;1.93;;;;;;;;;;5028912;28;20087;-75
2023/03/20 12:43:51;;;;;;;10.20;2.47;;;;;;;;;;5021105;28;20032;-75
2023/03/20 12:46:50;;;;;;;6.17;1.70;;;;;;;;;;5023518;28;20026;-75
2023/03/20 12:49:28;;;;;;;8.53;1.70;;;;;;;;;;4970732;28;20038;-75
2023/03/20 12:52:12;;;;;;;4.50;1.70;;;;;;;;;;5029858;28;20030;-74
2023/03/20 12:54:44;;;;;;;7.67;1.93;;;;;;;;;;5027024;28;20033;-76
2023/03/20 12:57:36;;;;;;;6.93;2.03;;;;;;;;;;5009240;28;21662;-76
2023/03/20 13:00:09;;;;;;;6.27;1.97;;;;;;;;;;5013065;28;21610;-76
2023/03/20 13:02:48;;;;;;;7.97;2.17;;;;;;;;;;5026408;28;20077;-75
2023/03/20 13:05:19;;;;;;;5.73;1.80;;;;;;;;;;5010105;28;20040;-76
2023/03/20 13:07:45;;;;;;;5.73;2.37;;;;;;;;;;5025241;28;20033;-75
2023/03/20 13:10:13;;;;;;;5.23;2.20;;;;;;;;;;5023038;28;20441;-76
2023/03/20 13:12:44;;;;;;;5.83;1.87;;;;;;;;;;5028001;28;20569;-73
2023/03/20 13:15:13;;;;;;;6.43;2.30;;;;;;;;;;5013476;28;20136;-76
2023/03/20 13:17:46;;;;;;;7.77;2.67;;;;;;;;;;5023845;28;20054;-75
2023/03/20 13:20:25;;;;;;;6.68;2.15;;;;;;;;;;5028987;28;20030;-74
2023/03/20 13:23:10;;;;;;;5.97;1.90;;;;;;;;;;5027328;28;20036;-76
2023/03/20 13:25:55;;;;;;;6.30;1.50;;;;;;;;;;5026147;28;20025;-75
2023/03/20 13:28:34;;;;;;;4.90;1.50;;;;;;;;;;5024742;28;20022;-75
2023/03/20 13:31:19;;;;;;;8.10;1.63;;;;;;;;;;5011931;28;20026;-76
2023/03/20 13:33:49;;;;;;;7.17;1.60;;;;;;;;;;5025379;28;20022;-76
2023/03/20 13:36:24;;;;;;;8.30;1.80;;;;;;;;;;5008566;28;20036;-75
2023/03/20 13:38:54;;;;;;;5.83;1.50;;;;;;;;;;5012917;28;20021;-74
2023/03/20 13:41:22;;;;;;;4.43;1.40;;;;;;;;;;5012185;28;20033;-76
2023/03/20 13:43:57;;;;;;;7.93;1.50;;;;;;;;;;5025786;28;20041;-75
2023/03/20 13:46:27;;;;;;;6.13;1.40;;;;;;;;;;5026097;28;20033;-75
2023/03/20 13:48:53;;;;;;;4.00;1.40;;;;;;;;;;5026663;28;20033;-75
2023/03/20 13:51:29;;;;;;;5.07;1.53;;;;;;;;;;5025863;28;20132;-76
2023/03/20 13:54:13;;;;;;;7.80;1.83;;;;;;;;;;5008908;28;20061;-75
2023/03/20 13:56:48;;;;;;;5.83;1.40;;;;;;;;;;5008033;28;20033;-75
2023/03/20 13:59:29;;;;;;;5.97;1.60;;;;;;;;;;5024739;28;20040;-75
2023/03/20 14:01:55;;;;;;;11.27;1.87;;;;;;;;;;5013412;28;20389;-76
2023/03/20 14:04:23;;;;;;;7.03;1.70;;;;;;;;;;5013014;28;20029;-75
2023/03/20 14:06:50;;;;;;;6.67;1.47;;;;;;;;;;5013686;28;20103;-76
2023/03/20 14:09:40;;;;;;;7.53;2.07;;;;;;;;;;5027316;28;20045;-75
2023/03/20 14:12:07;;;;;;;8.47;1.73;;;;;;;;;;4998413;28;20095;-75
2023/03/20 14:14:40;;;;;;;7.40;1.80;;;;;;;;;;5024345;28;20021;-76
2023/03/20 14:17:08;;;;;;;9.60;2.35;;;;;;;;;;5026602;28;20036;-74
2023/03/20 14:19:36;;;;;;;8.37;2.00;;;;;;;;;;5011157;28;20029;-75
2023/03/20 14:22:02;;;;;;;10.37;2.07;;;;;;;;;;5012504;28;20037;-75
2023/03/20 14:24:29;;;;;;;6.60;1.70;;;;;;;;;;5027224;28;20484;-74
2023/03/20 14:27:00;;;;;;;11.87;2.93;;;;;;;;;;5012838;28;20064;-76
2023/03/20 14:29:30;;;;;;;5.50;2.10;;;;;;;;;;5028002;28;20033;-74
2023/03/20 14:32:22;;;;;;;12.67;2.50;;;;;;;;;;5025000;28;20030;-75
2023/03/20 14:35:07;;;;;;;8.95;2.50;;;;;;;;;;5022563;28;20046;-75
2023/03/20 14:37:38;;;;;;;6.20;1.30;;;;;;;;;;5008888;28;20025;-76
2023/03/20 14:40:15;;;;;;;5.77;1.67;;;;;;;;;;5011102;28;20033;-75
2023/03/20 14:42:54;;;;;;;6.67;1.67;;;;;;;;;;5011014;28;20033;-76